createdAt,value
2023-04-01T00:01:03.317Z,98608.94
2023-04-01T00:03:30.582Z,98603.81
2023-04-01T00:05:58.084Z,98600.25
2023-04-01T00:08:25.602Z,98604.63
2023-04-01T00:10:52.005Z,98596.53
2023-04-01T00:13:18.452Z,98607.31
2023-04-01T00:15:45.397Z,98607.31
2023-04-01T00:18:12.725Z,98606.50
2023-04-01T00:20:39.429Z,98611.03
2023-04-01T00:23:06.175Z,98597.56
2023-04-01T00:25:32.825Z,98598.63
2023-04-01T00:27:59.506Z,98596.19
2023-04-01T00:30:25.871Z,98600.72
2023-04-01T00:32:54.073Z,98589.13
2023-04-01T00:35:20.550Z,98597.00
2023-04-01T00:37:48.249Z,98595.34
2023-04-01T00:40:45.500Z,98590.81
2023-04-01T00:43:13.533Z,98591.00
2023-04-01T00:45:43.602Z,98593.72
2023-04-01T00:48:14.163Z,98600.38
2023-04-01T00:50:43.329Z,98591.47
2023-04-01T00:53:10.549Z,98601.41
2023-04-01T00:55:43.088Z,98585.47
2023-04-01T00:58:14.657Z,98601.41
2023-04-01T01:00:41.398Z,98593.56
2023-04-01T01:03:08.406Z,98589.22
2023-04-01T01:05:55.184Z,98583.59
2023-04-01T01:08:34.403Z,98597.06
2023-04-01T01:11:02.170Z,98591.69
2023-04-01T01:13:42.546Z,98589.81
2023-04-01T01:16:46.032Z,98592.50
2023-04-01T01:19:56.982Z,98577.19
2023-04-01T01:22:40.264Z,98579.28
2023-04-01T01:25:21.418Z,98581.97
2023-04-01T01:28:01.428Z,98582.19
2023-04-01T01:30:44.241Z,98572.47
2023-04-01T01:33:25.270Z,98575.16
2023-04-01T01:35:55.446Z,98585.94
2023-04-01T01:38:29.838Z,98582.66
2023-04-01T01:40:58.613Z,98581.81
2023-04-01T01:43:30.890Z,98587.22
2023-04-01T01:46:01.377Z,98581.81
2023-04-01T01:48:30.610Z,98582.66
2023-04-01T01:50:57.380Z,98577.25
2023-04-01T01:53:23.785Z,98588.03
2023-04-01T01:55:50.236Z,98578.88
2023-04-01T01:58:41.293Z,98581.59
2023-04-01T02:01:13.221Z,98588.63
2023-04-01T02:03:41.406Z,98586.97
2023-04-01T02:06:11.016Z,98583.47
2023-04-01T02:08:45.616Z,98576.19
2023-04-01T02:11:16.174Z,98588.03
2023-04-01T02:14:05.004Z,98582.66
2023-04-01T02:16:44.205Z,98590.72
2023-04-01T02:19:13.280Z,98589.09
2023-04-01T02:21:41.768Z,98583.91
2023-04-01T02:24:14.376Z,98582.03
2023-04-01T02:26:41.940Z,98580.63
2023-04-01T02:29:12.477Z,98582.28
2023-04-01T02:31:39.036Z,98583.09
2023-04-01T02:34:05.967Z,98580.41
2023-04-01T02:36:33.241Z,98584.13
2023-04-01T02:39:05.133Z,98583.09
2023-04-01T02:41:31.519Z,98579.59
2023-04-01T02:43:59.467Z,98585.19
2023-04-01T02:46:26.416Z,98579.81
2023-04-01T02:48:52.785Z,98578.97
2023-04-01T02:51:19.193Z,98579.81
2023-04-01T02:53:45.664Z,98577.09
2023-04-01T02:56:12.028Z,98576.91
2023-04-01T02:58:38.356Z,98577.72
2023-04-01T03:01:04.717Z,98583.91
2023-04-01T03:03:31.695Z,98583.09
2023-04-01T03:05:59.543Z,98586.00
2023-04-01T03:08:25.976Z,98586.00
2023-04-01T03:10:52.317Z,98579.81
2023-04-01T03:13:18.651Z,98583.56
2023-04-01T03:15:45.151Z,98584.38
2023-04-01T03:18:11.464Z,98582.50
2023-04-01T03:20:37.803Z,98573.59
2023-04-01T03:23:04.283Z,98573.59
2023-04-01T03:25:31.726Z,98578.97
2023-04-01T03:28:00.450Z,98578.16
2023-04-01T03:30:27.533Z,98582.72
2023-04-01T03:32:54.097Z,98579.81
2023-04-01T03:35:20.702Z,98577.09
2023-04-01T03:37:47.107Z,98577.34
2023-04-01T03:40:13.842Z,98583.56
2023-04-01T03:42:40.333Z,98577.34
2023-04-01T03:45:07.344Z,98587.25
2023-04-01T03:47:33.794Z,98580.25
2023-04-01T03:50:00.747Z,98589.38
2023-04-01T03:52:27.163Z,98586.09
2023-04-01T03:54:53.575Z,98592.28
2023-04-01T03:57:19.980Z,98589.00
2023-04-01T03:59:46.374Z,98590.03
2023-04-01T04:02:12.760Z,98591.91
2023-04-01T04:04:39.147Z,98591.91
2023-04-01T04:07:05.588Z,98596.69
2023-04-01T04:09:32.667Z,98591.53
2023-04-01T04:11:59.168Z,98596.09
2023-04-01T04:14:25.833Z,98594.47
2023-04-01T04:16:52.208Z,98591.16
2023-04-01T04:19:18.845Z,98596.75
2023-04-01T04:21:45.263Z,98604.00
2023-04-01T04:24:11.731Z,98602.38
2023-04-01T04:26:38.056Z,98606.94
2023-04-01T04:29:04.551Z,98607.75
2023-04-01T04:31:30.954Z,98606.94
2023-04-01T04:33:57.539Z,98607.75
2023-04-01T04:36:24.096Z,98609.63
2023-04-01T04:38:50.540Z,98613.94
2023-04-01T04:41:18.854Z,98617.44
2023-04-01T04:43:54.156Z,98618.28
2023-04-01T04:46:21.617Z,98619.31
2023-04-01T04:48:48.106Z,98619.09
2023-04-01T04:51:19.599Z,98620.16
2023-04-01T04:53:46.352Z,98627.41
2023-04-01T04:56:12.980Z,98622.22
2023-04-01T04:58:40.209Z,98627.59
2023-04-01T05:01:09.529Z,98631.97
2023-04-01T05:03:36.201Z,98626.56
2023-04-01T05:06:02.789Z,98630.91
2023-04-01T05:08:29.249Z,98630.91
2023-04-01T05:10:55.830Z,98632.53
2023-04-01T05:13:22.348Z,98630.69
2023-04-01T05:15:48.839Z,98630.44
2023-04-01T05:18:33.978Z,98626.75
2023-04-01T05:21:00.432Z,98630.44
2023-04-01T05:23:45.213Z,98635.84
2023-04-01T05:26:14.284Z,98635.63
2023-04-01T05:28:41.177Z,98646.59
2023-04-01T05:31:08.413Z,98650.34
2023-04-01T05:33:35.037Z,98644.16
2023-04-01T05:36:15.835Z,98651.16
2023-04-01T05:38:43.435Z,98649.53
2023-04-01T05:41:09.908Z,98653.03
2023-04-01T05:43:41.096Z,98656.34
2023-04-01T05:46:07.849Z,98656.34
2023-04-01T05:48:35.862Z,98656.09
2023-04-01T05:51:03.456Z,98663.97
2023-04-01T05:53:29.824Z,98660.22
2023-04-01T05:55:56.232Z,98663.50
2023-04-01T05:58:22.662Z,98662.25
2023-04-01T06:00:55.978Z,98666.56
2023-04-01T06:03:28.982Z,98669.88
2023-04-01T06:05:55.475Z,98674.22
2023-04-01T06:08:21.824Z,98677.72
2023-04-01T06:11:05.369Z,98681.84
2023-04-01T06:13:37.623Z,98685.34
2023-04-01T06:16:17.041Z,98688.66
2023-04-01T06:19:24.939Z,98685.72
2023-04-01T06:22:28.702Z,98692.75
2023-04-01T06:25:21.847Z,98686.31
2023-04-01T06:28:19.259Z,98699.78
2023-04-01T06:31:17.742Z,98697.09
2023-04-01T06:34:21.667Z,98704.09
2023-04-01T06:37:13.345Z,98705.97
2023-04-01T06:39:42.624Z,98713.03
2023-04-01T06:42:31.405Z,98710.34
2023-04-01T06:45:08.032Z,98710.34
2023-04-01T06:47:45.426Z,98709.28
2023-04-01T06:50:33.343Z,98718.78
2023-04-01T06:53:11.774Z,98720.66
2023-04-01T06:55:48.644Z,98717.97
2023-04-01T06:58:28.311Z,98721.25
2023-04-01T07:00:59.609Z,98724.78
2023-04-01T07:03:37.260Z,98726.41
2023-04-01T07:06:06.976Z,98728.28
2023-04-01T07:08:39.832Z,98730.75
2023-04-01T07:11:07.832Z,98731.59
2023-04-01T07:14:07.413Z,98735.69
2023-04-01T07:16:40.773Z,98738.97
2023-04-01T07:19:15.798Z,98734.81
2023-04-01T07:21:44.772Z,98740.56
2023-04-01T07:24:21.764Z,98743.66
2023-04-01T07:26:50.892Z,98742.94
2023-04-01T07:29:17.249Z,98746.88
2023-04-01T07:32:08.321Z,98751.16
2023-04-01T07:35:13.193Z,98748.38
2023-04-01T07:37:54.919Z,98750.81
2023-04-01T07:40:44.353Z,98758.81
2023-04-01T07:43:38.626Z,98756.88
2023-04-01T07:46:07.987Z,98758.88
2023-04-01T07:48:45.865Z,98767.94
2023-04-01T07:51:27.688Z,98765.59
2023-04-01T07:54:18.865Z,98764.69
2023-04-01T07:57:03.117Z,98765.91
2023-04-01T07:59:56.168Z,98770.63
2023-04-01T08:02:41.277Z,98763.50
2023-04-01T08:05:23.415Z,98771.72
2023-04-01T08:08:16.540Z,98778.28
2023-04-01T08:10:51.727Z,98787.59
2023-04-01T08:13:26.268Z,98785.25
2023-04-01T08:16:09.335Z,98791.03
2023-04-01T08:18:51.821Z,98786.59
2023-04-01T08:21:26.127Z,98787.56
2023-04-01T08:23:56.051Z,98793.09
2023-04-01T08:26:41.181Z,98799.22
2023-04-01T08:29:22.010Z,98802.03
2023-04-01T08:32:04.500Z,98800.31
2023-04-01T08:34:43.769Z,98806.69
2023-04-01T08:37:15.061Z,98806.81
2023-04-01T08:39:52.466Z,98805.88
2023-04-01T08:43:03.662Z,98808.50
2023-04-01T08:46:00.903Z,98808.38
2023-04-01T08:48:42.659Z,98811.44
2023-04-01T08:51:14.971Z,98809.34
2023-04-01T08:54:09.108Z,98817.81
2023-04-01T08:56:36.000Z,98815.09
2023-04-01T08:59:23.202Z,98828.75
2023-04-01T09:01:59.773Z,98824.50
2023-04-01T09:04:42.795Z,98827.34
2023-04-01T09:07:21.710Z,98830.75
2023-04-01T09:09:51.180Z,98827.94
2023-04-01T09:12:36.347Z,98831.69
2023-04-01T09:15:14.776Z,98827.59
2023-04-01T09:18:18.179Z,98840.28
2023-04-01T09:20:59.669Z,98832.19
2023-04-01T09:23:39.068Z,98829.97
2023-04-01T09:26:17.793Z,98839.13
2023-04-01T09:28:56.506Z,98843.34
2023-04-01T09:31:52.534Z,98841.56
2023-04-01T09:34:55.194Z,98846.25
2023-04-01T09:37:26.441Z,98854.38
2023-04-01T09:40:14.294Z,98857.91
2023-04-01T09:43:25.057Z,98858.97
2023-04-01T09:46:15.726Z,98855.41
2023-04-01T09:49:12.905Z,98864.59
2023-04-01T09:51:53.310Z,98864.00
2023-04-01T09:54:40.917Z,98858.13
2023-04-01T09:57:34.020Z,98866.34
2023-04-01T10:00:45.576Z,98866.56
2023-04-01T10:03:39.020Z,98866.78
2023-04-01T10:06:30.570Z,98870.78
2023-04-01T10:09:24.755Z,98879.31
2023-04-01T10:12:10.236Z,98880.25
2023-04-01T10:15:12.730Z,98877.88
2023-04-01T10:18:00.576Z,98873.13
2023-04-01T10:20:47.146Z,98876.28
2023-04-01T10:23:49.261Z,98881.69
2023-04-01T10:26:15.754Z,98882.69
2023-04-01T10:29:06.294Z,98882.38
2023-04-01T10:32:07.181Z,98885.59
2023-04-01T10:35:01.206Z,98889.88
2023-04-01T10:38:03.294Z,98880.84
2023-04-01T10:40:38.694Z,98886.41
2023-04-01T10:43:40.146Z,98889.78
2023-04-01T10:46:17.015Z,98883.38
2023-04-01T10:49:03.706Z,98895.38
2023-04-01T10:51:49.228Z,98901.38
2023-04-01T10:54:30.363Z,98900.78
2023-04-01T10:57:03.874Z,98902.34
2023-04-01T10:59:54.730Z,98911.47
2023-04-01T11:02:39.919Z,98906.47
2023-04-01T11:05:15.583Z,98908.53
2023-04-01T11:08:23.592Z,98914.34
2023-04-01T11:11:29.321Z,98912.06
2023-04-01T11:14:27.638Z,98912.19
2023-04-01T11:17:09.327Z,98914.56
2023-04-01T11:19:39.546Z,98918.88
2023-04-01T11:22:30.384Z,98917.78
2023-04-01T11:25:15.328Z,98921.06
2023-04-01T11:27:57.455Z,98930.34
2023-04-01T11:30:47.043Z,98931.25
2023-04-01T11:33:29.497Z,98937.03
2023-04-01T11:36:29.707Z,98932.19
2023-04-01T11:39:10.246Z,98937.84
2023-04-01T11:42:01.438Z,98938.66
2023-04-01T11:44:30.402Z,98945.38
2023-04-01T11:47:23.293Z,98941.38
2023-04-01T11:50:14.671Z,98941.47
2023-04-01T11:53:18.788Z,98947.56
2023-04-01T11:55:57.056Z,98948.53
2023-04-01T11:58:43.716Z,98949.53
2023-04-01T12:01:36.136Z,98961.69
2023-04-01T12:04:49.331Z,98960.31
2023-04-01T12:07:54.137Z,98966.47
2023-04-01T12:10:42.117Z,98966.59
2023-04-01T12:13:20.503Z,98965.13
2023-04-01T12:16:06.080Z,98967.91
2023-04-01T12:18:58.184Z,98978.56
2023-04-01T12:21:44.276Z,98975.09
2023-04-01T12:24:28.854Z,98975.41
2023-04-01T12:27:07.494Z,98980.59
2023-04-01T12:29:51.375Z,98976.56
2023-04-01T12:32:41.451Z,98982.00
2023-04-01T12:35:07.853Z,98986.63
2023-04-01T13:51:45.196Z,99102.97
2023-04-01T13:54:27.713Z,99098.66
2023-04-01T13:57:12.419Z,99104.22
2023-04-01T14:00:06.568Z,99110.13
2023-04-01T14:03:12.480Z,99107.72
2023-04-01T14:05:53.752Z,99116.56
2023-04-01T14:08:44.759Z,99110.03
2023-04-01T14:11:15.038Z,99127.81
2023-04-01T14:14:08.280Z,99123.34
2023-04-01T14:17:02.808Z,99136.16
2023-04-01T14:20:04.173Z,99133.81
2023-04-01T14:22:58.038Z,99141.38
2023-04-01T14:25:56.276Z,99141.34
2023-04-01T14:28:44.012Z,99139.41
2023-04-01T14:31:24.539Z,99148.72
2023-04-01T14:34:20.486Z,99144.75
2023-04-01T14:36:52.714Z,99145.38
2023-04-01T14:39:44.036Z,99150.53
2023-04-01T14:42:32.858Z,99161.94
2023-04-01T14:45:20.728Z,99162.75
2023-04-01T14:48:29.747Z,99164.41
2023-04-01T14:51:04.017Z,99166.25
2023-04-01T14:53:35.139Z,99168.38
2023-04-01T14:56:06.201Z,99176.47
2023-04-01T14:58:44.538Z,99181.88
2023-04-01T15:01:29.857Z,99185.59
2023-04-01T15:03:59.133Z,99182.69
2023-04-01T15:06:38.922Z,99188.09
2023-04-01T15:09:15.875Z,99191.00
2023-04-01T15:12:00.325Z,99191.44
2023-04-01T15:14:57.902Z,99195.63
2023-04-01T15:17:42.465Z,99203.94
2023-04-01T15:20:37.218Z,99206.25
2023-04-01T15:23:40.964Z,99216.88
2023-04-01T15:26:43.824Z,99219.41
2023-04-01T15:29:33.869Z,99224.00
2023-04-01T15:32:06.121Z,99234.59
2023-04-01T15:35:02.285Z,99237.72
2023-04-01T15:37:52.752Z,99248.13
2023-04-01T15:40:31.341Z,99256.88
2023-04-01T15:43:15.878Z,99253.97
2023-04-01T15:45:47.317Z,99259.81
2023-04-01T15:48:39.747Z,99263.53
2023-04-01T15:51:13.422Z,99268.91
2023-04-01T15:54:16.864Z,99271.63
2023-04-01T15:57:02.318Z,99272.22
2023-04-01T15:59:38.120Z,99287.59
2023-04-01T16:02:22.513Z,99299.19
2023-04-01T16:04:57.941Z,99298.81
2023-04-01T16:07:42.950Z,99297.56
2023-04-01T16:10:21.657Z,99310.84
2023-04-01T16:13:24.426Z,99318.97
2023-04-01T16:19:57.344Z,99322.94
2023-04-01T16:22:35.359Z,99332.28
2023-04-01T16:25:38.752Z,99336.00
2023-04-01T16:28:21.278Z,99358.59
2023-04-01T16:31:07.149Z,99363.97
2023-04-01T16:33:41.054Z,99355.69
2023-04-01T16:36:15.976Z,99353.84
2023-04-01T16:38:51.214Z,99372.47
2023-04-01T16:41:33.294Z,99383.03
2023-04-01T16:44:24.241Z,99390.88
2023-04-01T16:46:55.428Z,99380.91
2023-04-01T16:49:38.739Z,99401.22
2023-04-01T16:52:15.722Z,99416.09
2023-04-01T16:54:58.029Z,99405.34
2023-04-01T16:57:32.203Z,99424.78
2023-04-01T17:00:39.530Z,99422.91
2023-04-01T17:03:06.384Z,99439.25
2023-04-01T17:05:47.234Z,99441.69
2023-04-01T17:08:44.093Z,99440.84
2023-04-01T17:11:18.382Z,99444.56
2023-04-01T17:14:00.520Z,99454.28
2023-04-01T17:16:53.143Z,99454.22
2023-04-01T17:19:26.375Z,99465.63
2023-04-01T17:22:14.875Z,99474.28
2023-04-01T17:24:44.482Z,99482.28
2023-04-01T17:27:36.822Z,99496.13
2023-04-01T17:30:21.572Z,99498.56
2023-04-01T17:33:00.195Z,99507.25
2023-04-01T17:35:51.401Z,99514.22
2023-04-01T17:38:28.260Z,99530.97
2023-04-01T17:41:27.051Z,99534.22
2023-04-01T17:44:02.489Z,99539.34
2023-04-01T17:47:00.340Z,99551.47
2023-04-01T17:50:02.645Z,99554.53
2023-04-01T17:52:44.410Z,99571.06
2023-04-01T17:55:46.422Z,99572.28
2023-04-01T17:58:30.042Z,99569.16
2023-04-01T18:01:25.742Z,99579.66
2023-04-01T18:03:52.196Z,99594.28
2023-04-01T18:06:24.476Z,99588.66
2023-04-01T18:08:50.842Z,99608.03
2023-04-01T18:11:29.336Z,99624.53
2023-04-01T18:14:17.528Z,99621.59
2023-04-01T18:17:13.731Z,99624.81
2023-04-01T18:20:08.175Z,99645.03
2023-04-01T18:22:43.835Z,99636.72
2023-04-01T18:25:43.396Z,99657.94
2023-04-01T18:28:38.897Z,99665.88
2023-04-01T18:31:21.851Z,99675.53
2023-04-01T18:33:54.035Z,99682.47
2023-04-01T18:36:34.364Z,99691.28
2023-04-01T18:39:11.520Z,99692.84
2023-04-01T18:42:02.988Z,99701.44
2023-04-01T18:44:46.652Z,99711.06
2023-04-01T18:47:22.014Z,99707.91
2023-04-01T18:50:00.372Z,99715.66
2023-04-01T18:52:35.762Z,99717.88
2023-04-01T18:55:02.046Z,99729.81
2023-04-01T18:57:43.184Z,99729.16
2023-04-01T19:00:20.382Z,99749.97
2023-04-01T19:03:11.119Z,99745.63
2023-04-01T19:05:40.165Z,99742.13
2023-04-01T19:08:26.129Z,99764.56
2023-04-01T19:11:00.409Z,99770.13
2023-04-01T19:13:36.353Z,99782.72
2023-04-01T19:16:27.799Z,99795.47
2023-04-01T19:19:29.406Z,99807.38
2023-04-01T19:22:23.547Z,99794.50
2023-04-01T19:25:11.811Z,99810.13
2023-04-01T19:27:51.356Z,99808.19
2023-04-01T19:30:42.565Z,99808.69
2023-04-01T19:33:30.897Z,99817.09
2023-04-01T19:36:12.314Z,99816.44
2023-04-01T19:38:42.667Z,99817.44
2023-04-01T19:41:40.566Z,99825.69
2023-04-01T19:44:16.134Z,99810.94
2023-04-01T19:46:50.388Z,99836.22
2023-04-01T19:50:01.317Z,99842.97
2023-04-01T19:52:40.612Z,99844.16
2023-04-01T19:55:36.547Z,99847.19
2023-04-01T19:58:34.833Z,99857.41
2023-04-01T20:01:04.201Z,99866.63
2023-04-01T20:03:49.257Z,99871.88
2023-04-01T20:06:34.409Z,99896.50
2023-04-01T20:09:27.627Z,99900.72
2023-04-01T20:12:06.288Z,99880.63
2023-04-01T20:14:52.606Z,99903.41
2023-04-01T20:17:27.511Z,99900.75
2023-04-01T20:20:09.437Z,99918.97
2023-04-01T20:22:44.622Z,99904.94
2023-04-01T20:25:52.102Z,99924.00
2023-04-01T20:28:18.408Z,99934.09
2023-04-01T20:31:09.617Z,99929.09
2023-04-01T20:33:48.188Z,99951.84
2023-04-01T20:36:17.574Z,99945.13
2023-04-01T20:39:00.052Z,99953.34
2023-04-01T20:41:48.359Z,99958.88
2023-04-01T20:44:28.809Z,99968.06
2023-04-01T20:47:17.221Z,99981.81
2023-04-01T20:49:56.327Z,99970.63
2023-04-01T20:52:37.592Z,99991.50
2023-04-01T20:55:40.470Z,99983.00
2023-04-01T20:58:28.920Z,99987.00
2023-04-01T21:01:07.239Z,99988.50
2023-04-01T21:03:56.501Z,99999.53
2023-04-01T21:06:39.753Z,100016.97
2023-04-01T21:09:12.210Z,100012.78
2023-04-01T21:11:55.246Z,100028.16
2023-04-01T21:14:49.964Z,100049.91
2023-04-01T21:17:38.843Z,100044.53
2023-04-01T21:20:14.833Z,100044.00
2023-04-01T21:22:52.283Z,100046.19
2023-04-01T21:25:45.629Z,100049.88
2023-04-01T21:28:26.971Z,100073.44
2023-04-01T21:31:09.553Z,100075.44
2023-04-01T21:34:08.246Z,100073.94
2023-04-01T21:36:59.044Z,100083.97
2023-04-01T21:39:43.715Z,100080.59
2023-04-01T21:42:30.609Z,100090.63
2023-04-01T21:45:16.807Z,100105.16
2023-04-01T21:48:10.886Z,100111.00
2023-04-01T21:50:49.382Z,100106.16
2023-04-01T21:53:33.884Z,100111.81
2023-04-01T21:56:26.144Z,100126.50
2023-04-01T21:59:04.332Z,100137.53
2023-04-01T22:02:01.804Z,100138.69
2023-04-01T22:04:40.018Z,100148.69
2023-04-01T22:07:22.017Z,100153.34
2023-04-01T22:10:09.146Z,100169.38
2023-04-01T22:12:41.632Z,100166.06
2023-04-01T22:15:53.765Z,100176.06
2023-04-01T22:18:45.619Z,100178.75
2023-04-01T22:21:37.386Z,100176.22
2023-04-01T22:24:21.085Z,100190.72
2023-04-01T22:27:31.512Z,100196.53
2023-04-01T22:30:08.857Z,100189.84
2023-04-01T22:32:47.923Z,100212.38
2023-04-01T22:35:43.614Z,100209.03
2023-04-01T22:38:34.419Z,100198.78
2023-04-01T22:41:44.072Z,100219.34
2023-04-01T22:44:38.681Z,100225.97
2023-04-01T22:47:19.889Z,100218.94
2023-04-01T22:49:58.819Z,100222.94
2023-04-01T22:52:34.502Z,100260.66
2023-04-01T22:55:12.861Z,100241.25
2023-04-01T22:57:47.187Z,100248.44
2023-04-01T23:00:20.296Z,100251.38
2023-04-01T23:03:02.692Z,100252.53
2023-04-01T23:05:31.102Z,100249.19
2023-04-01T23:08:23.827Z,100277.72
2023-04-01T23:11:04.297Z,100269.19
2023-04-01T23:13:40.636Z,100276.50
2023-04-01T23:16:09.247Z,100281.19
2023-04-01T23:18:52.561Z,100288.34
2023-04-01T23:21:25.021Z,100291.19
2023-04-01T23:24:08.567Z,100301.88
2023-04-01T23:26:49.760Z,100309.19
2023-04-01T23:29:18.252Z,100312.16
2023-04-01T23:32:01.662Z,100316.81
2023-04-01T23:34:33.179Z,100312.75
2023-04-01T23:37:20.899Z,100312.06
2023-04-01T23:39:51.110Z,100318.56
2023-04-01T23:42:25.670Z,100323.19
2023-04-01T23:44:58.392Z,100328.00
2023-04-01T23:47:30.938Z,100344.31
2023-04-01T23:50:02.441Z,100333.94
2023-04-01T23:52:41.485Z,100346.56
2023-04-01T23:55:27.112Z,100343.25
2023-04-01T23:58:16.071Z,100353.22
